Time;durP1;ratioP1;P1;durP2;ratioP2;P2;SDS_P1;SDS_P2;PMS_P1;PMS_P2;Temp;Humidity;BMP_temperature;BMP_pressure;BME280_temperature;BME280_humidity;BME280_pressure;Samples;Min_cycle;Max_cycle;Signal;HPM_P1;HPM_P2
2021/09/10 00:02:32;;;;;;;28.80;13.50;;;;;;;10.55;83.65;99264.44;3901009;89;21168;-81
2021/09/10 00:08:34;;;;;;;23.00;14.33;;;;;;;10.52;83.98;99269.28;3904791;90;21083;-82
2021/09/10 00:14:35;;;;;;;18.98;13.35;;;;;;;10.43;83.66;99266.02;3943691;89;21585;-82
2021/09/10 00:20:37;;;;;;;17.17;12.03;;;;;;;10.43;83.90;99258.58;3940819;89;21007;-84
2021/09/10 00:26:38;;;;;;;20.72;14.87;;;;;;;10.48;84.19;99261.01;3938980;89;21105;-81
2021/09/10 00:32:39;;;;;;;23.77;14.85;;;;;;;10.39;83.98;99263.78;3937436;89;21114;-81
2021/09/10 00:38:41;;;;;;;21.82;15.28;;;;;;;10.19;84.09;99263.66;3947543;89;21054;-81
2021/09/10 00:44:43;;;;;;;20.50;14.23;;;;;;;10.31;84.67;99269.73;3934688;89;22218;-81
2021/09/10 00:50:47;;;;;;;23.98;16.35;;;;;;;10.23;84.97;99273.50;3941727;89;22211;-81
2021/09/10 00:56:48;;;;;;;24.57;14.35;;;;;;;10.15;84.32;99266.33;3939305;89;21110;-81
2021/09/10 01:02:50;;;;;;;23.07;14.75;;;;;;;9.97;84.23;99266.58;3930944;89;21102;-82
2021/09/10 01:08:52;;;;;;;21.65;12.90;;;;;;;9.86;84.46;99269.70;3942552;89;21105;-80
2021/09/10 01:15:11;;;;;;;20.12;13.90;;;;;;;9.79;85.26;99276.98;3911148;89;21081;-81
2021/09/10 01:21:12;;;;;;;23.38;15.03;;;;;;;9.70;84.55;99273.67;3894326;90;21658;-81
2021/09/10 01:27:13;;;;;;;22.95;15.03;;;;;;;9.55;84.67;99273.40;3904193;90;21030;-81
2021/09/10 01:33:16;;;;;;;20.32;14.28;;;;;;;9.43;84.56;99275.50;3893790;90;21070;-81
2021/09/10 01:39:17;;;;;;;21.15;14.13;;;;;;;9.54;85.99;99277.86;3910182;90;21591;-81
2021/09/10 01:45:19;;;;;;;24.37;13.95;;;;;;;9.49;85.13;99275.41;3900233;90;21137;-81
2021/09/10 01:51:34;;;;;;;21.80;14.23;;;;;;;9.31;84.91;99289.31;3901521;90;21117;-81
2021/09/10 01:57:35;;;;;;;24.40;14.47;;;;;;;9.29;85.56;99295.13;3900894;90;21394;-82
2021/09/10 02:03:40;;;;;;;21.73;13.35;;;;;;;9.33;85.05;99295.98;3898031;90;21085;-81
2021/09/10 02:09:41;;;;;;;21.55;12.33;;;;;;;9.15;85.29;99288.01;3895369;90;21073;-81
2021/09/10 02:15:43;;;;;;;23.18;13.78;;;;;;;9.04;86.10;99278.80;3901947;90;21137;-83
2021/09/10 02:21:44;;;;;;;22.70;14.25;;;;;;;9.17;85.97;99278.89;3904336;90;21184;-80
2021/09/10 02:27:45;;;;;;;18.98;13.53;;;;;;;9.17;85.52;99283.55;3908878;90;21141;-81
2021/09/10 02:33:47;;;;;;;24.07;13.75;;;;;;;9.04;85.49;99280.16;3911482;90;21454;-81
2021/09/10 02:39:48;;;;;;;19.55;12.35;;;;;;;8.95;85.76;99277.41;3910281;90;21057;-84
2021/09/10 02:45:50;;;;;;;25.70;14.10;;;;;;;8.85;85.69;99282.86;3908077;89;21743;-81
2021/09/10 02:51:52;;;;;;;23.57;14.28;;;;;;;8.73;85.74;99272.62;3907995;90;21121;-81
2021/09/10 02:57:55;;;;;;;18.15;12.53;;;;;;;8.60;85.77;99272.52;3922535;90;21159;-82
2021/09/10 03:04:04;;;;;;;21.57;12.65;;;;;;;8.72;87.32;99271.83;3844330;91;21161;-81
2021/09/10 03:10:08;;;;;;;19.60;13.22;;;;;;;8.85;86.99;99269.77;3904876;90;21182;-82
2021/09/10 03:16:09;;;;;;;24.02;14.87;;;;;;;8.83;86.13;99276.18;3935210;89;21094;-82
2021/09/10 03:22:10;;;;;;;23.55;13.30;;;;;;;8.63;86.26;99281.38;3940273;89;21074;-81
2021/09/10 03:28:12;;;;;;;24.80;14.83;;;;;;;8.58;86.66;99277.55;3898493;90;21470;-82
2021/09/10 03:34:13;;;;;;;18.12;12.00;;;;;;;8.52;86.48;99285.80;3892672;90;21052;-81
2021/09/10 03:40:16;;;;;;;20.88;13.60;;;;;;;8.64;87.51;99284.31;3891636;90;21100;-81
2021/09/10 03:46:20;;;;;;;20.10;13.32;;;;;;;8.64;86.59;99285.69;3889793;90;21017;-81
2021/09/10 03:52:21;;;;;;;22.13;14.00;;;;;;;8.52;86.74;99285.20;3885180;90;21116;-81
2021/09/10 03:58:22;;;;;;;22.90;13.72;;;;;;;8.39;86.47;99282.94;3891634;90;21061;-81
2021/09/10 04:04:26;;;;;;;21.30;13.75;;;;;;;8.33;87.03;99285.13;3889491;90;21084;-81
2021/09/10 04:10:28;;;;;;;26.05;14.78;;;;;;;8.28;87.09;99283.25;3885757;90;21541;-81
2021/09/10 04:16:45;;;;;;;20.88;13.83;;;;;;;8.15;86.66;99283.87;3850595;90;21171;-81
2021/09/10 04:22:47;;;;;;;28.93;14.00;;;;;;;8.03;86.76;99279.29;3845370;91;21427;-81
2021/09/10 04:28:52;;;;;;;23.75;13.48;;;;;;;8.00;87.31;99288.17;3898887;90;21170;-81
2021/09/10 04:34:54;;;;;;;19.65;13.38;;;;;;;8.18;87.62;99295.45;3910033;90;21101;-81
2021/09/10 04:40:55;;;;;;;20.25;13.90;;;;;;;8.13;87.31;99289.48;3906615;90;21149;-82
2021/09/10 04:46:56;;;;;;;21.80;12.95;;;;;;;8.10;87.55;99295.05;3907735;89;22279;-81
2021/09/10 04:52:57;;;;;;;19.10;11.50;;;;;;;8.30;87.95;99294.02;3919804;88;21724;-81
2021/09/10 04:58:58;;;;;;;19.67;13.00;;;;;;;8.50;88.66;99301.16;3856809;91;21201;-81
2021/09/10 05:12:07;;;;;;;18.10;12.25;;;;;;;8.42;87.67;99304.05;3910300;90;21065;-80
2021/09/10 05:18:09;;;;;;;19.95;12.63;;;;;;;8.47;88.45;99310.61;3900827;89;21097;-81
2021/09/10 05:24:10;;;;;;;20.08;12.95;;;;;;;8.73;89.06;99305.38;3905128;90;21141;-83
2021/09/10 05:30:12;;;;;;;21.27;12.65;;;;;;;9.02;88.87;99309.75;3910988;90;21552;-81
2021/09/10 05:36:13;;;;;;;21.90;13.05;;;;;;;9.17;89.10;99299.37;3899418;90;21151;-82
2021/09/10 05:42:14;;;;;;;23.90;13.15;;;;;;;9.44;88.96;99300.32;3899629;90;21090;-83
2021/09/10 05:48:18;;;;;;;23.27;14.18;;;;;;;9.64;89.03;99298.36;3895073;90;21123;-82
2021/09/10 05:54:19;;;;;;;25.27;15.65;;;;;;;9.83;88.87;99305.17;3902613;90;21150;-82
2021/09/10 06:00:20;;;;;;;22.45;16.40;;;;;;;9.96;88.83;99299.77;3899600;89;21101;-82
2021/09/10 06:06:22;;;;;;;28.42;19.60;;;;;;;10.11;89.31;99303.78;3894748;90;21056;-82
2021/09/10 06:12:23;;;;;;;36.48;22.37;;;;;;;10.29;89.66;99308.20;3900174;89;21076;-83
2021/09/10 06:18:25;;;;;;;33.73;19.67;;;;;;;10.57;90.27;99305.33;3892852;90;21105;-84
2021/09/10 06:24:26;;;;;;;30.68;18.77;;;;;;;11.04;90.69;99306.22;3899662;90;21175;-82
2021/09/10 06:30:27;;;;;;;32.42;19.73;;;;;;;11.41;90.77;99311.25;3834813;91;21069;-82
2021/09/10 06:36:29;;;;;;;37.73;21.02;;;;;;;11.72;91.00;99302.64;3899683;90;21112;-82
2021/09/10 06:42:30;;;;;;;33.70;22.17;;;;;;;11.99;91.18;99313.72;3902205;90;21158;-82
2021/09/10 06:48:31;;;;;;;36.13;20.77;;;;;;;12.23;91.07;99319.25;3890120;90;21145;-82
2021/09/10 06:54:33;;;;;;;31.05;19.02;;;;;;;12.48;91.20;99316.91;3839068;91;21081;-82
2021/09/10 07:00:34;;;;;;;31.45;17.73;;;;;;;12.76;91.32;99321.06;3892209;90;21607;-81
2021/09/10 07:06:36;;;;;;;26.30;17.57;;;;;;;13.03;91.01;99323.24;3901843;90;21685;-81
2021/09/10 07:12:37;;;;;;;30.82;17.17;;;;;;;13.32;90.87;99324.20;3896737;88;21613;-81
2021/09/10 07:18:39;;;;;;;35.08;17.23;;;;;;;13.64;90.71;99332.03;3914992;90;21100;-81
2021/09/10 07:24:41;;;;;;;27.32;16.15;;;;;;;13.97;90.39;99334.48;3915363;90;21084;-81
2021/09/10 07:30:45;;;;;;;27.13;13.20;;;;;;;14.35;89.95;99324.77;3783758;91;21158;-82
2021/09/10 07:36:52;;;;;;;26.77;13.75;;;;;;;14.72;89.61;99327.34;3854819;91;21105;-81
2021/09/10 07:42:53;;;;;;;20.27;12.03;;;;;;;15.11;89.46;99325.33;3901088;90;22405;-79
2021/09/10 07:48:54;;;;;;;23.42;12.30;;;;;;;15.51;89.17;99325.45;3906838;89;21310;-82
2021/09/10 07:54:56;;;;;;;19.60;11.50;;;;;;;16.01;89.00;99331.54;3906740;90;21044;-82
2021/09/10 08:00:57;;;;;;;14.80;8.88;;;;;;;16.52;88.45;99335.80;3916474;90;21119;-82
2021/09/10 08:06:58;;;;;;;14.23;8.30;;;;;;;17.04;87.86;99325.66;3920952;89;21103;-84
2021/09/10 08:12:59;;;;;;;14.65;7.12;;;;;;;17.63;87.33;99335.15;3853545;90;21040;-83
2021/09/10 08:19:00;;;;;;;13.70;7.25;;;;;;;18.16;86.63;99332.48;3840126;91;21474;-82
2021/09/10 08:25:05;;;;;;;13.93;6.90;;;;;;;18.59;85.78;99332.84;3840068;91;21184;-83
2021/09/10 08:31:06;;;;;;;17.07;6.42;;;;;;;18.97;85.23;99326.47;3843829;91;21152;-83
2021/09/10 08:37:07;;;;;;;9.65;5.95;;;;;;;19.34;84.19;99322.05;3854984;91;21591;-83
2021/09/10 08:43:09;;;;;;;12.78;6.22;;;;;;;19.69;82.85;99321.95;3888794;90;21068;-83
2021/09/10 08:49:13;;;;;;;12.03;5.25;;;;;;;20.07;81.70;99320.36;3883996;90;21126;-83
2021/09/10 08:55:16;;;;;;;8.85;4.15;;;;;;;20.40;80.56;99310.91;3879345;90;21100;-85
2021/09/10 09:01:17;;;;;;;6.15;3.90;;;;;;;20.77;78.08;99316.55;3885810;90;21089;-83
2021/09/10 09:07:22;;;;;;;9.48;3.70;;;;;;;21.20;74.91;99307.33;3885427;90;21097;-84
2021/09/10 09:13:36;;;;;;;6.08;3.37;;;;;;;21.63;75.29;99315.45;3867704;90;21114;-83
2021/09/10 09:20:13;;;;;;;6.75;3.83;;;;;;;22.18;71.29;99314.86;3883666;90;21164;-84
2021/09/10 09:26:23;;;;;;;3.87;2.60;;;;;;;23.00;70.18;99310.44;3835399;90;21092;-84
2021/09/10 09:32:24;;;;;;;5.72;3.42;;;;;;;23.69;65.50;99304.20;3881847;90;21158;-84
2021/09/10 09:38:42;;;;;;;8.28;3.20;;;;;;;24.72;64.76;99296.20;3881428;90;21160;-84
2021/09/10 09:44:50;;;;;;;7.50;3.00;;;;;;;25.66;62.41;99292.72;3877944;90;21637;-83
2021/09/10 09:50:55;;;;;;;5.62;3.05;;;;;;;26.60;60.90;99300.70;3881239;90;21519;-84
2021/09/10 09:56:57;;;;;;;3.85;2.65;;;;;;;27.57;60.35;99280.88;3880803;90;21537;-84
2021/09/10 10:03:01;;;;;;;7.28;3.10;;;;;;;28.02;49.69;99278.90;3880068;90;21121;-84
2021/09/10 10:09:15;;;;;;;7.58;2.70;;;;;;;27.61;46.44;99283.51;3882073;90;21085;-86
2021/09/10 10:15:28;;;;;;;6.58;2.50;;;;;;;27.72;43.24;99282.93;3785177;92;21073;-84
2021/09/10 10:22:02;;;;;;;3.20;2.33;;;;;;;28.47;46.23;99269.27;3840829;91;21054;-84
2021/09/10 10:28:07;;;;;;;3.62;2.58;;;;;;;28.95;43.40;99271.11;3845448;91;21099;-85
2021/09/10 10:34:08;;;;;;;2.33;1.90;;;;;;;29.61;44.22;99271.93;3878004;90;21122;-87
2021/09/10 10:40:42;;;;;;;4.35;2.00;;;;;;;30.19;39.70;99267.24;3878376;90;21660;-88
2021/09/10 10:46:45;;;;;;;4.03;1.98;;;;;;;29.46;36.54;99262.77;3875849;90;21184;-85
2021/09/10 10:52:55;;;;;;;2.75;1.98;;;;;;;30.23;38.41;99267.80;3876066;90;21201;-85
2021/09/10 10:59:25;;;;;;;3.30;2.42;;;;;;;30.87;37.72;99262.97;3877229;90;21243;-85
2021/09/10 11:05:27;;;;;;;4.72;2.52;;;;;;;31.36;38.19;99249.72;3795112;90;2433545;-85
2021/09/10 11:11:28;;;;;;;5.58;2.42;;;;;;;30.98;31.36;99250.97;3824568;91;21068;-87
2021/09/10 11:17:29;;;;;;;2.90;2.30;;;;;;;29.91;28.20;99245.69;3886811;90;21090;-85
2021/09/10 11:23:37;;;;;;;4.75;2.20;;;;;;;29.73;33.58;99234.73;3911905;90;21054;-85
2021/09/10 11:29:40;;;;;;;2.95;2.05;;;;;;;29.84;34.02;99232.80;3915587;90;21616;-84
2021/09/10 11:35:42;;;;;;;6.65;2.67;;;;;;;29.36;34.17;99226.78;3912609;90;21101;-84
2021/09/10 11:41:43;;;;;;;4.22;2.65;;;;;;;28.53;34.40;99222.91;3902804;90;21679;-85
2021/09/10 11:47:48;;;;;;;4.87;2.45;;;;;;;27.92;33.19;99205.69;3912244;90;21145;-84
2021/09/10 11:53:56;;;;;;;4.85;2.90;;;;;;;27.38;32.98;99202.18;3915538;90;21146;-84
2021/09/10 12:00:02;;;;;;;4.62;2.70;;;;;;;26.98;33.89;99197.69;3906262;90;21174;-84
2021/09/10 12:06:05;;;;;;;5.65;3.33;;;;;;;26.87;33.13;99193.25;3885464;90;21105;-84
2021/09/10 12:12:23;;;;;;;4.55;2.47;;;;;;;26.41;34.14;99193.98;3890430;90;21566;-84
2021/09/10 12:18:25;;;;;;;3.27;2.65;;;;;;;26.08;33.96;99186.37;3902111;90;21130;-83
2021/09/10 12:24:26;;;;;;;2.75;2.33;;;;;;;25.88;35.27;99180.52;3917238;90;21613;-84
2021/09/10 12:30:32;;;;;;;5.58;2.52;;;;;;;25.78;35.92;99172.59;3909243;89;21124;-85
2021/09/10 12:36:36;;;;;;;4.67;2.95;;;;;;;25.64;36.40;99173.26;3913547;90;21599;-84
2021/09/10 12:42:39;;;;;;;5.78;2.75;;;;;;;25.39;36.97;99165.23;3910960;90;21154;-86
2021/09/10 12:48:41;;;;;;;3.77;2.30;;;;;;;25.13;37.11;99159.19;3912684;90;21530;-87
2021/09/10 12:54:45;;;;;;;10.45;3.45;;;;;;;25.03;37.85;99149.23;3904401;90;21156;-84
2021/09/10 13:00:46;;;;;;;3.77;2.95;;;;;;;25.05;38.76;99141.76;3910366;90;21058;-84
2021/09/10 13:06:48;;;;;;;4.75;3.25;;;;;;;24.87;38.51;99137.59;3905536;90;21653;-84
2021/09/10 13:12:52;;;;;;;5.80;3.12;;;;;;;24.72;38.95;99136.64;3909220;90;21101;-84
2021/09/10 13:18:55;;;;;;;6.10;2.72;;;;;;;24.70;38.75;99127.31;3899504;90;21090;-84
2021/09/10 13:24:56;;;;;;;4.78;2.37;;;;;;;24.70;38.75;99127.31;3902218;90;21569;-83
2021/09/10 13:30:59;;;;;;;13.45;3.70;;;;;;;24.64;39.34;99127.75;3890475;90;21851;-83
2021/09/10 13:37:10;;;;;;;6.37;3.37;;;;;;;24.51;38.98;99121.52;3892634;90;21083;-84
2021/09/10 13:43:10;;;;;;;5.33;2.77;;;;;;;24.45;38.99;99127.58;3900667;90;21193;-84
2021/09/10 13:49:12;;;;;;;5.60;2.55;;;;;;;24.38;39.06;99125.86;3900638;89;21110;-84
2021/09/10 13:55:15;;;;;;;4.40;2.70;;;;;;;24.34;39.68;99124.45;3832730;91;21988;-84
2021/09/10 14:01:16;;;;;;;6.50;2.75;;;;;;;24.27;39.90;99117.77;3895389;90;21435;-84
2021/09/10 14:07:47;;;;;;;3.67;2.90;;;;;;;24.24;40.42;99114.51;3892580;90;21067;-83
2021/09/10 14:13:58;;;;;;;3.98;2.80;;;;;;;24.08;40.44;99116.97;3875435;90;21099;-84
2021/09/10 14:20:01;;;;;;;5.50;2.95;;;;;;;24.01;41.04;99117.24;3889637;90;21060;-83
2021/09/10 14:26:06;;;;;;;3.83;2.72;;;;;;;23.93;41.11;99113.15;3887968;89;21178;-84
2021/09/10 14:32:09;;;;;;;4.85;2.47;;;;;;;23.89;41.39;99116.72;3888120;90;21094;-84
2021/09/10 14:38:10;;;;;;;5.25;2.90;;;;;;;23.82;41.44;99119.03;3890031;89;21102;-83
2021/09/10 14:44:11;;;;;;;6.35;3.00;;;;;;;23.62;42.43;99119.41;3880133;90;21111;-83
2021/09/10 14:50:12;;;;;;;7.53;3.12;;;;;;;23.47;43.31;99117.63;3884625;90;21020;-84
2021/09/10 14:56:16;;;;;;;6.97;3.22;;;;;;;23.19;43.61;99119.48;3884811;90;21082;-83
2021/09/10 15:02:19;;;;;;;3.62;3.00;;;;;;;23.24;43.53;99119.65;3888747;90;21598;-83
2021/09/10 15:08:21;;;;;;;4.30;2.85;;;;;;;23.29;43.33;99116.16;3885188;89;21078;-82
2021/09/10 15:14:23;;;;;;;4.95;3.02;;;;;;;23.21;43.38;99114.20;3885828;90;21635;-84
2021/09/10 15:20:25;;;;;;;4.80;2.85;;;;;;;23.10;43.80;99116.61;3911083;90;21106;-83
2021/09/10 15:26:26;;;;;;;4.40;2.90;;;;;;;23.05;44.33;99117.22;3909885;89;21114;-84
2021/09/10 15:32:28;;;;;;;4.95;3.37;;;;;;;22.92;44.77;99113.09;3913611;90;21126;-83
2021/09/10 15:38:31;;;;;;;7.37;3.15;;;;;;;22.85;45.21;99119.53;3911075;89;21102;-83
2021/09/10 15:44:33;;;;;;;4.85;2.90;;;;;;;22.78;45.68;99114.22;3909706;89;21097;-83
2021/09/10 15:50:34;;;;;;;5.75;3.60;;;;;;;22.71;46.26;99113.07;3905661;89;21113;-83
2021/09/10 15:56:41;;;;;;;5.37;3.33;;;;;;;22.65;46.55;99101.73;3910652;90;21453;-83
2021/09/10 16:02:45;;;;;;;8.88;2.92;;;;;;;22.57;46.67;99103.20;3905929;90;21150;-83
2021/09/10 16:08:48;;;;;;;4.95;3.47;;;;;;;22.42;47.08;99095.77;3910734;90;21100;-83
2021/09/10 16:14:56;;;;;;;8.35;3.65;;;;;;;22.26;47.51;99101.49;3908557;90;21118;-83
2021/09/10 16:20:57;;;;;;;11.25;3.98;;;;;;;22.03;48.15;99095.71;3872555;91;21725;-83
2021/09/10 16:26:59;;;;;;;6.70;3.67;;;;;;;21.81;49.16;99104.60;3871566;91;21565;-84
2021/09/10 16:33:00;;;;;;;11.50;5.35;;;;;;;21.53;50.44;99106.87;3878069;91;21073;-85
2021/09/10 16:39:04;;;;;;;8.53;5.05;;;;;;;21.32;51.47;99101.94;3871081;91;21101;-83
2021/09/10 16:45:06;;;;;;;14.20;5.58;;;;;;;21.15;52.50;99104.64;3870082;91;21122;-84
2021/09/10 16:51:07;;;;;;;17.87;6.20;;;;;;;20.90;53.58;99103.16;3822665;91;21810;-83
2021/09/10 16:57:08;;;;;;;14.80;7.10;;;;;;;20.61;54.62;99106.59;3867230;91;21213;-83
2021/09/10 17:03:09;;;;;;;19.60;9.75;;;;;;;20.31;55.48;99110.56;3871883;91;21487;-83
2021/09/10 17:09:13;;;;;;;17.25;9.33;;;;;;;20.01;56.42;99101.19;3821995;91;21130;-83
2021/09/10 17:15:14;;;;;;;17.67;8.90;;;;;;;19.73;57.08;99101.25;3869237;90;21106;-82
2021/09/10 17:21:16;;;;;;;20.75;11.57;;;;;;;19.48;57.94;99101.05;3912838;90;21031;-82
2021/09/10 17:27:17;;;;;;;25.77;11.57;;;;;;;19.34;58.63;99115.88;3889834;90;21678;-83
2021/09/10 17:33:18;;;;;;;23.05;11.65;;;;;;;19.13;59.68;99119.86;3893885;90;21064;-83
2021/09/10 17:39:20;;;;;;;24.27;12.47;;;;;;;18.76;60.38;99134.11;3896136;90;21134;-83
2021/09/10 17:45:23;;;;;;;16.27;9.00;;;;;;;18.45;61.82;99135.47;3890471;90;21056;-83
2021/09/10 17:51:24;;;;;;;30.27;15.70;;;;;;;18.24;62.77;99137.22;3895776;90;21153;-83
2021/09/10 17:57:28;;;;;;;22.07;15.00;;;;;;;18.14;63.25;99149.25;3889513;90;21131;-83
2021/09/10 18:03:51;;;;;;;25.35;16.40;;;;;;;17.90;63.60;99149.08;3880872;90;21097;-82
2021/09/10 18:09:53;;;;;;;31.62;17.32;;;;;;;17.69;64.17;99147.41;3894452;90;22008;-83
2021/09/10 18:15:54;;;;;;;29.40;15.43;;;;;;;17.46;64.82;99163.17;3890503;89;21087;-83
2021/09/10 18:21:55;;;;;;;22.73;13.72;;;;;;;17.34;65.35;99173.40;3902554;90;21155;-83
2021/09/10 18:28:00;;;;;;;22.93;13.58;;;;;;;17.06;66.14;99175.91;3902054;90;21059;-83
2021/09/10 18:34:01;;;;;;;30.50;15.18;;;;;;;16.90;66.95;99188.13;3903426;90;21575;-82
2021/09/10 18:40:04;;;;;;;29.45;14.75;;;;;;;16.77;67.30;99187.88;3917443;90;21554;-84
2021/09/10 18:46:06;;;;;;;31.27;15.35;;;;;;;16.66;67.76;99200.25;3902255;89;21058;-83
2021/09/10 18:52:09;;;;;;;26.52;14.55;;;;;;;16.46;67.98;99200.03;3900993;90;21634;-83
2021/09/10 18:58:11;;;;;;;31.37;17.02;;;;;;;16.23;68.84;99201.20;3945045;90;21099;-83
2021/09/10 19:04:15;;;;;;;30.35;15.60;;;;;;;16.11;69.54;99205.84;3904354;90;21032;-83
2021/09/10 19:10:20;;;;;;;27.85;14.47;;;;;;;15.91;69.85;99201.27;3901565;90;21595;-82
2021/09/10 19:16:24;;;;;;;30.05;17.02;;;;;;;15.69;70.34;99191.73;3903322;90;21208;-82
2021/09/10 19:22:29;;;;;;;26.35;14.58;;;;;;;15.47;70.94;99198.55;3893064;90;21642;-83
2021/09/10 19:28:32;;;;;;;33.48;15.85;;;;;;;15.26;71.65;99194.51;3792229;90;10000204;-83
2021/09/10 19:34:34;;;;;;;29.32;15.53;;;;;;;15.25;71.98;99194.91;3897407;90;21739;-83
2021/09/10 19:40:38;;;;;;;26.55;14.85;;;;;;;15.13;72.39;99200.85;3895117;90;21073;-83
2021/09/10 19:46:41;;;;;;;27.17;13.90;;;;;;;15.08;73.01;99200.67;3831083;93;21052;-83
2021/09/10 19:52:45;;;;;;;25.55;16.15;;;;;;;15.01;73.40;99209.56;3889973;90;21036;-83
2021/09/10 19:58:49;;;;;;;29.05;16.20;;;;;;;14.86;73.46;99212.19;3907808;90;21058;-83
2021/09/10 20:04:50;;;;;;;37.90;18.85;;;;;;;14.61;73.95;99205.94;3921637;90;21019;-82
2021/09/10 20:10:52;;;;;;;33.05;19.70;;;;;;;14.37;73.95;99202.61;3895414;90;21099;-82
2021/09/10 20:16:54;;;;;;;32.28;17.35;;;;;;;14.26;74.64;99199.88;3890480;89;21177;-82
2021/09/10 20:22:57;;;;;;;31.15;18.20;;;;;;;14.33;75.44;99205.36;3906063;89;21096;-83
2021/09/10 20:28:59;;;;;;;33.98;19.62;;;;;;;14.37;75.59;99208.12;3791136;90;9999535;-82
2021/09/10 20:35:03;;;;;;;37.90;23.10;;;;;;;14.22;75.36;99216.94;3915654;89;21039;-82
2021/09/10 20:41:05;;;;;;;35.75;21.77;;;;;;;13.98;75.67;99215.74;3813820;91;21985;-82
2021/09/10 20:47:06;;;;;;;32.93;21.02;;;;;;;13.76;75.87;99222.42;3877293;90;21205;-82
2021/09/10 20:53:08;;;;;;;34.08;20.43;;;;;;;13.70;76.51;99220.44;3879699;90;21043;-82
2021/09/10 20:59:10;;;;;;;34.30;18.95;;;;;;;13.65;77.14;99220.81;3873199;90;21175;-83
2021/09/10 21:05:13;;;;;;;36.65;21.27;;;;;;;13.50;77.04;99223.34;3877315;90;21104;-82
2021/09/10 21:11:17;;;;;;;34.88;20.23;;;;;;;13.40;77.29;99227.62;3876233;90;21181;-82
2021/09/10 21:17:18;;;;;;;33.65;20.25;;;;;;;13.29;77.48;99226.00;3877556;90;21149;-82
2021/09/10 21:23:20;;;;;;;31.37;19.87;;;;;;;13.12;77.82;99233.02;3894032;90;21519;-82
2021/09/10 21:29:21;;;;;;;34.05;20.37;;;;;;;13.01;78.21;99238.24;3893901;90;21134;-82
2021/09/10 21:35:23;;;;;;;33.20;20.02;;;;;;;12.98;78.61;99229.38;3891901;90;21519;-83
2021/09/10 21:41:24;;;;;;;31.70;19.35;;;;;;;12.82;78.45;99231.05;3893084;89;21631;-82
2021/09/10 21:47:26;;;;;;;31.02;19.42;;;;;;;12.70;79.00;99227.83;3890859;90;21550;-82
2021/09/10 21:53:30;;;;;;;30.68;17.92;;;;;;;12.70;79.17;99230.58;3892193;89;21056;-82
2021/09/10 21:59:31;;;;;;;33.85;17.48;;;;;;;12.57;79.47;99228.73;3895039;89;21098;-82
2021/09/10 22:05:32;;;;;;;28.80;18.32;;;;;;;12.54;80.18;99236.36;3892873;90;21227;-83
2021/09/10 22:11:33;;;;;;;26.20;15.75;;;;;;;12.55;79.81;99233.81;3892647;90;21101;-85
2021/09/10 22:17:41;;;;;;;28.23;17.52;;;;;;;12.45;80.52;99228.44;3888335;90;21135;-83
2021/09/10 22:23:43;;;;;;;29.85;16.77;;;;;;;12.44;80.21;99234.31;3870262;91;21150;-83
2021/09/10 22:29:44;;;;;;;31.65;17.92;;;;;;;12.34;80.33;99233.06;3866062;91;21041;-83
2021/09/10 22:35:46;;;;;;;24.45;15.03;;;;;;;12.23;80.66;99245.91;3869898;91;22338;-83
2021/09/10 22:41:47;;;;;;;29.98;17.70;;;;;;;12.11;80.47;99242.09;3872534;91;21090;-83
2021/09/10 22:47:49;;;;;;;30.10;16.57;;;;;;;11.93;80.62;99242.50;3871397;91;21113;-82
2021/09/10 22:53:50;;;;;;;24.25;16.40;;;;;;;12.03;81.10;99243.77;3868553;91;21141;-83
2021/09/10 22:59:51;;;;;;;23.60;14.85;;;;;;;11.92;80.88;99236.82;3870330;91;21593;-83
2021/09/10 23:05:54;;;;;;;29.57;15.83;;;;;;;11.85;81.49;99241.45;3870222;91;21090;-83
2021/09/10 23:11:55;;;;;;;27.48;15.93;;;;;;;11.78;81.35;99244.11;3879051;90;21152;-83
2021/09/10 23:17:58;;;;;;;30.20;15.70;;;;;;;11.65;82.06;99255.93;3831602;91;21090;-83
2021/09/10 23:23:59;;;;;;;26.27;14.10;;;;;;;11.65;81.74;99245.56;3833490;93;21126;-83
2021/09/10 23:30:03;;;;;;;26.80;15.10;;;;;;;11.55;82.07;99244.83;3880099;90;21570;-83
2021/09/10 23:36:05;;;;;;;26.37;15.00;;;;;;;11.43;82.20;99234.13;3887667;90;21195;-83
2021/09/10 23:42:08;;;;;;;25.75;15.65;;;;;;;11.40;82.49;99237.61;3890399;90;21563;-82
2021/09/10 23:48:09;;;;;;;22.02;13.98;;;;;;;11.25;82.16;99241.33;3887699;90;21472;-83
2021/09/10 23:54:11;;;;;;;26.17;14.43;;;;;;;11.18;82.62;99235.20;3893786;90;21134;-83
